This is the latest recevied weather packets stored in our database for station/object KG5APU. If no packets are shown the sender has not sent any weather packets the latest 10 day(s).
| Time | Temp. | Humidity | Pressure | Rain* | Wind** | Luminosity | Snow |
|---|---|---|---|---|---|---|---|
| 1787924466 | 28.33° C | 73% | 1018.9 hPa | 0 mm | - | 158 W/m² | - |
| 1787923861 | 27.78° C | 76% | 1018.9 hPa | 0 mm | - | 133 W/m² | - |
| 1787923257 | 27.78° C | 76% | 1018.8 hPa | 0 mm | - | 110 W/m² | - |
| 1787922652 | 27.22° C | 77% | 1019 hPa | 0 mm | - | 91 W/m² | - |
| 1787922049 | 26.67° C | 79% | 1018.8 hPa | 0 mm | - | 72 W/m² | - |
| 1787921449 | 26.11° C | 82% | 1018.6 hPa | 0 mm | - | 56 W/m² | - |
| 1787920845 | 25° C | 87% | 1018.5 hPa | 0 mm | - | 41 W/m² | - |
| 1787920239 | 23.89° C | 88% | 1018.5 hPa | 0 mm | - | 29 W/m² | - |
| 1787919637 | 23.89° C | 87% | 1018.4 hPa | 0 mm | - | 20 W/m² | - |
| 1787919034 | 23.89° C | 87% | 1018.2 hPa | 0 mm | - | 10 W/m² | - |
| 1787918434 | 23.89° C | 86% | 1017.9 hPa | 0 mm | - | 4 W/m² | - |
| 1787917833 | 23.89° C | 85% | 1017.9 hPa | 0 mm | - | 1 W/m² | - |
| 1787917232 | 24.44° C | 86% | 1017.8 hPa | 0 mm | - | 0 W/m² | - |
| 1787916631 | 23.89° C | 86% | 1017.8 hPa | 0 mm | - | 0 W/m² | - |
| 1787916027 | 23.89° C | 85% | 1017.7 hPa | 0 mm | - | 0 W/m² | - |
| 1787915423 | 24.44° C | 84% | 1017.6 hPa | 0 mm | - | 0 W/m² | - |
| 1787914823 | 24.44° C | 84% | 1017.6 hPa | 0 mm | - | 0 W/m² | - |
| 1787914222 | 23.89° C | 85% | 1017.5 hPa | 0 mm | - | 0 W/m² | - |
| 1787913626 | 23.89° C | 84% | 1017.5 hPa | 0 mm | - | 0 W/m² | - |
| 1787913022 | 23.89° C | 83% | 1017.3 hPa | 0 mm | - | 0 W/m² | - |
| 1787912421 | 23.89° C | 82% | 1017.3 hPa | 0 mm | - | 0 W/m² | - |
| 1787911821 | 23.89° C | 82% | 1017.4 hPa | 0 mm | - | 0 W/m² | - |
| 1787911220 | 24.44° C | 82% | 1017.2 hPa | 0 mm | - | 0 W/m² | - |
| 1787910619 | 24.44° C | 82% | 1017.3 hPa | 0 mm | - | 0 W/m² | - |
| 1787910015 | 24.44° C | 82% | 1017.3 hPa | 0 mm | - | 0 W/m² | - |
* Rain latest hour (hover to see other rain measurements)
** Current wind speed in m/s (hover to see current wind gust speed)